Churchton, MD (20733)

9:07 AM EDT on September 21, 2014 (GMT -0400)
West River | Change Station
CLOSE
Current Station
Personal Weather Station
Location: Galesville, MD
Elevation: 15 ft
Nearby Weather Stations

Elev 15 ft 38.85 °N, 76.54 °W | Updated 12 minutes ago

Partly Cloudy
Partly Cloudy
64.6 °F
Feels Like 64.6 °F
N
6.0
Wind Variable Wind from North
Gusts 7.0 mph

Today
High -- | Low -- °F
--% Chance of Precip.
Yesterday
High -- | Low -- °F
Precip. -- in
6:52 AM 7:04 PM
Waning Crescent, 7% visible
Pressure 29.88 in
Visibility 5.0 miles
Clouds Overcast 1200 ft
Dew Point 63 °F
Humidity 95%
Rainfall 0.00 in
Snow Depth Not available.
UV 1 out of 12
Pollen 3.90 out of 12
Air Quality Not available.
Flu Activity Not available.
METAR KNAK 211254Z AUTO 36004KT 5SM BR OVC012 19/18 A2988 RMK AO2 SLP119 T01940178 $

More Conditions Fewer Conditions

Pressure 29.88 in
Visibility 5.0 miles
Clouds Overcast 1200 ft
Dew Point 63 °F
Humidity 95%
Rainfall 0.00 in
Snow Depth Not available.
UV 1 out of 12
Pollen 3.90 out of 12
Air Quality Not available.
Flu Activity Not available.
METAR KNAK 211254Z AUTO 36004KT 5SM BR OVC012 19/18 A2988 RMK AO2 SLP119 T01940178 $

More Conditions Fewer Conditions

10-Day Weather Forecast

Almanac

Astronomy

Sep. 21, 2014 Rise Set
Actual Time 6:52 AM EDT 7:04 PM EDT
Civil Twilight 6:26 AM EDT 7:31 PM EDT
Nautical Twilight 5:55 AM EDT 8:02 PM EDT
Astronomical Twilight 5:23 AM EDT 8:33 PM EDT
Moon 4:25 AM EDT 5:38 PM EDT
Length of Visible Light 13h 05m
Length of Day
12h 11m
Tomorrow will be 2m 31s shorter.
Waning Crescent, 7% of the Moon is Illuminated
Today
Waning Crescent
Sep 24
New
Oct 1
First Quarter
Oct 8
Full
Oct 15
Last Quarter

Today's Extremes

State Highs State Lows

Community

WunderPhotos

Upload Photos

1,755,134 photos uploaded!

Nearby

Snow Depth

Station Depth Elevation
No new snow has been reported.

Earthquake Activity

City Distance Mag. Time & Date
No recent earthquake activity has been reported nearby.
Minimum magnitude displayed is 2.5.

Coastal Water Temperatures

Place Temperature
Cambridge, MD 73.9 °F
Tolchester Beach, MD 73.0 °F
Baltimore, MD 75.0 °F

Nearby Weather Stations